Terminal Aerodrome Forecast
Issued by NWS

Home | Current Version | Previous Version | Text Only | Print | Product List | Glossary On
Versions: 1 2 3 4 5 6 7 8 9 10 11 12 13 14 15 16 17 18 19 20
000
FTUS45 KBOU 231128
TAFBJC
TAF
KBJC 231128Z 2312/2412 30007KT P6SM SCT130 BKN200
     FM231700 01007KT P6SM FEW090 SCT130
     FM232200 05008KT P6SM VCTS SCT090CB BKN130
     FM240200 24010KT P6SM FEW090 SCT130 BKN200=

USA.gov is the U.S. government's official web portal to all federal, state and local government web resources and services.